createdAt,value
2022-07-26T00:00:57.445Z,69.70
2022-07-26T00:03:24.676Z,68.27
2022-07-26T00:05:53.290Z,68.41
2022-07-26T00:08:20.641Z,67.47
2022-07-26T00:10:51.217Z,64.39
2022-07-26T00:13:21.512Z,62.02
2022-07-26T00:15:50.673Z,61.46
2022-07-26T00:18:37.480Z,61.69
2022-07-26T00:21:06.542Z,61.30
2022-07-26T00:23:35.729Z,60.94
2022-07-26T00:26:03.342Z,60.53
2022-07-26T00:28:30.361Z,60.50
2022-07-26T00:30:57.307Z,60.48
2022-07-26T00:33:24.702Z,60.38
2022-07-26T00:35:51.926Z,60.82
2022-07-26T00:38:20.568Z,60.32
2022-07-26T00:40:47.427Z,59.99
2022-07-26T00:43:14.601Z,59.92
2022-07-26T00:45:41.767Z,60.49
2022-07-26T00:48:09.081Z,60.70
2022-07-26T00:50:36.470Z,60.42
2022-07-26T00:53:03.505Z,60.34
2022-07-26T00:55:32.093Z,59.82
2022-07-26T00:57:59.061Z,59.85
2022-07-26T01:00:25.981Z,59.16
2022-07-26T01:02:53.014Z,59.81
2022-07-26T01:05:20.181Z,59.00
2022-07-26T01:07:49.397Z,59.52
2022-07-26T01:10:18.599Z,60.87
2022-07-26T01:12:46.926Z,61.06
2022-07-26T01:15:16.003Z,60.33
2022-07-26T01:17:44.313Z,60.27
2022-07-26T01:20:13.506Z,63.00
2022-07-26T01:22:42.069Z,65.09
2022-07-26T01:25:10.546Z,65.91
2022-07-26T01:27:38.754Z,66.12
2022-07-26T01:30:09.759Z,67.29
2022-07-26T01:32:37.178Z,68.17
2022-07-26T01:35:07.471Z,67.53
2022-07-26T01:37:34.477Z,67.41
2022-07-26T01:40:05.359Z,67.19
2022-07-26T01:42:34.330Z,69.06
2022-07-26T01:45:01.639Z,71.84
2022-07-26T01:47:28.818Z,75.70
2022-07-26T01:49:56.139Z,75.54
2022-07-26T01:52:23.009Z,75.20
2022-07-26T01:54:49.924Z,75.61
2022-07-26T01:57:18.363Z,75.81
2022-07-26T01:59:45.249Z,75.65
2022-07-26T02:02:13.016Z,74.87
2022-07-26T02:04:39.961Z,76.42
2022-07-26T02:07:12.961Z,75.96
2022-07-26T02:09:40.726Z,78.88
2022-07-26T02:12:08.433Z,80.06
2022-07-26T02:14:36.879Z,80.44
2022-07-26T02:17:04.176Z,81.98
2022-07-26T02:19:31.804Z,81.20
2022-07-26T02:21:59.465Z,82.41
2022-07-26T02:24:28.263Z,83.53
2022-07-26T02:26:55.542Z,84.17
2022-07-26T02:29:22.791Z,85.85
2022-07-26T02:31:52.180Z,85.21
2022-07-26T02:34:19.503Z,86.17
2022-07-26T02:36:46.524Z,85.80
2022-07-26T02:39:13.889Z,85.83
2022-07-26T02:41:40.849Z,86.21
2022-07-26T02:44:09.597Z,87.24
2022-07-26T02:46:37.248Z,87.07
2022-07-26T02:49:05.959Z,88.04
2022-07-26T02:51:32.848Z,87.81
2022-07-26T02:54:00.235Z,88.13
2022-07-26T02:56:27.452Z,88.18
2022-07-26T02:58:54.560Z,88.65
2022-07-26T03:01:22.355Z,89.32
2022-07-26T03:03:50.990Z,88.69
2022-07-26T03:06:20.742Z,88.68
2022-07-26T03:08:48.738Z,88.80
2022-07-26T03:11:16.429Z,89.35
2022-07-26T03:13:43.245Z,88.04
2022-07-26T03:16:10.890Z,87.77
2022-07-26T03:18:37.919Z,86.69
2022-07-26T03:21:05.396Z,85.33
2022-07-26T03:23:33.794Z,86.52
2022-07-26T03:26:02.231Z,86.30
2022-07-26T03:28:30.632Z,88.34
2022-07-26T03:30:58.287Z,88.02
2022-07-26T03:33:25.508Z,88.47
2022-07-26T03:35:52.927Z,88.61
2022-07-26T03:38:19.810Z,87.84
2022-07-26T03:40:48.490Z,88.02
2022-07-26T03:43:15.422Z,87.25
2022-07-26T03:45:42.854Z,87.53
2022-07-26T03:48:09.933Z,86.42
2022-07-26T03:50:37.325Z,85.62
2022-07-26T03:53:04.960Z,85.41
2022-07-26T03:55:32.024Z,84.51
2022-07-26T03:58:00.589Z,84.47
2022-07-26T04:00:27.783Z,84.33
2022-07-26T04:02:54.946Z,83.59
2022-07-26T04:05:23.546Z,83.05
2022-07-26T04:07:53.827Z,81.28
2022-07-26T04:10:22.346Z,81.85
2022-07-26T04:12:49.243Z,80.20
2022-07-26T04:15:18.669Z,79.78
2022-07-26T04:17:45.636Z,79.27
2022-07-26T04:20:37.242Z,78.55
2022-07-26T04:23:04.812Z,78.15
2022-07-26T04:25:41.115Z,78.63
2022-07-26T04:28:08.861Z,78.00
2022-07-26T04:30:38.593Z,77.00
2022-07-26T04:33:10.181Z,77.17
2022-07-26T04:35:38.822Z,76.97
2022-07-26T04:38:05.781Z,76.65
2022-07-26T04:40:32.740Z,75.96
2022-07-26T04:43:00.349Z,74.79
2022-07-26T04:45:28.342Z,72.00
2022-07-26T04:47:56.822Z,70.36
2022-07-26T04:50:27.289Z,68.88
2022-07-26T04:52:54.948Z,67.90
2022-07-26T04:55:23.398Z,66.04
2022-07-26T04:57:51.257Z,63.59
2022-07-26T05:00:24.630Z,62.48
2022-07-26T05:02:54.395Z,63.06
2022-07-26T05:05:24.285Z,63.37
2022-07-26T05:07:54.511Z,62.92
2022-07-26T05:10:27.469Z,65.22
2022-07-26T05:12:54.603Z,66.21
2022-07-26T05:15:21.455Z,66.51
2022-07-26T05:17:48.545Z,67.70
2022-07-26T05:20:16.565Z,68.47
2022-07-26T05:22:45.175Z,64.20
2022-07-26T05:25:12.603Z,61.76
2022-07-26T05:27:39.498Z,58.63
2022-07-26T05:30:08.514Z,56.99
2022-07-26T05:32:35.319Z,55.34
2022-07-26T05:35:02.869Z,54.84
2022-07-26T05:37:29.874Z,52.78
2022-07-26T05:39:58.314Z,53.36
2022-07-26T05:42:25.209Z,55.45
2022-07-26T05:44:52.377Z,56.79
2022-07-26T05:47:19.212Z,58.52
2022-07-26T05:49:49.762Z,60.42
2022-07-26T05:52:16.773Z,62.59
2022-07-26T05:54:43.615Z,61.85
2022-07-26T05:57:11.806Z,59.49
2022-07-26T05:59:38.902Z,59.39
2022-07-26T06:02:05.852Z,59.21
2022-07-26T06:04:32.818Z,59.07
2022-07-26T06:06:59.918Z,58.60
2022-07-26T06:09:26.837Z,57.26
2022-07-26T06:11:53.809Z,54.90
2022-07-26T06:14:22.110Z,50.60
2022-07-26T06:16:50.669Z,47.77
2022-07-26T06:19:18.108Z,45.38
2022-07-26T06:21:44.928Z,43.83
2022-07-26T06:24:13.300Z,41.75
2022-07-26T06:26:40.735Z,41.84
2022-07-26T06:29:08.588Z,40.60
2022-07-26T06:31:36.780Z,38.75
2022-07-26T06:34:03.659Z,39.23
2022-07-26T06:36:31.444Z,38.30
2022-07-26T06:38:58.670Z,38.15
2022-07-26T06:41:28.426Z,38.21
2022-07-26T06:43:55.445Z,39.09
2022-07-26T06:46:22.523Z,41.15
2022-07-26T06:48:52.631Z,38.82
2022-07-26T06:51:20.528Z,38.54
2022-07-26T06:53:47.718Z,36.93
2022-07-26T06:56:17.011Z,35.98
2022-07-26T06:58:44.535Z,35.22
2022-07-26T07:01:11.449Z,34.62
2022-07-26T07:03:39.042Z,33.94
2022-07-26T07:06:07.267Z,34.35
2022-07-26T07:08:34.272Z,35.65
2022-07-26T07:11:02.286Z,36.00
2022-07-26T07:13:30.575Z,35.75
2022-07-26T07:15:57.527Z,35.66
2022-07-26T07:18:24.488Z,34.34
2022-07-26T07:20:51.368Z,34.16
2022-07-26T07:23:19.605Z,34.85
2022-07-26T07:25:46.516Z,33.16
2022-07-26T07:28:16.545Z,33.63
2022-07-26T07:30:46.219Z,33.38
2022-07-26T07:33:22.543Z,34.11
2022-07-26T07:35:51.015Z,36.08
2022-07-26T07:38:19.954Z,38.34
2022-07-26T07:40:49.583Z,38.04
2022-07-26T07:43:16.713Z,37.54
2022-07-26T07:45:43.852Z,38.07
2022-07-26T07:48:15.416Z,38.12
2022-07-26T07:50:42.819Z,37.63
2022-07-26T07:53:09.772Z,38.06
2022-07-26T07:55:41.521Z,39.17
2022-07-26T07:58:11.107Z,39.80
2022-07-26T08:00:39.000Z,40.72
2022-07-26T08:03:05.936Z,40.42
2022-07-26T08:05:32.788Z,40.75
2022-07-26T08:07:59.849Z,40.50
2022-07-26T08:10:27.172Z,40.60
2022-07-26T08:12:55.307Z,40.83
2022-07-26T08:15:23.091Z,40.61
2022-07-26T08:17:54.699Z,41.88
2022-07-26T08:20:22.908Z,41.80
2022-07-26T08:22:52.325Z,39.71
2022-07-26T08:25:19.585Z,39.52
2022-07-26T08:28:02.592Z,39.37
2022-07-26T08:30:32.592Z,38.41
2022-07-26T08:32:59.482Z,38.65
2022-07-26T08:35:26.750Z,38.95
2022-07-26T08:37:53.582Z,39.74
2022-07-26T08:40:21.155Z,39.67
2022-07-26T08:42:52.506Z,39.78
2022-07-26T08:45:23.233Z,39.52
2022-07-26T08:48:16.254Z,39.73
2022-07-26T08:50:40.779Z,39.81
2022-07-26T08:53:08.492Z,40.48
2022-07-26T08:56:04.221Z,40.47
2022-07-26T08:58:23.777Z,40.63
2022-07-26T09:01:05.030Z,40.80
2022-07-26T09:03:34.062Z,40.83
2022-07-26T09:06:13.062Z,41.27
2022-07-26T09:08:39.995Z,41.31
2022-07-26T09:11:30.782Z,40.79
2022-07-26T09:14:00.730Z,40.76
2022-07-26T09:16:29.858Z,41.68
2022-07-26T09:19:16.710Z,41.63
2022-07-26T09:21:43.795Z,41.59
2022-07-26T09:24:11.108Z,42.59
2022-07-26T09:26:39.147Z,42.56
2022-07-26T09:29:10.438Z,41.81
2022-07-26T09:31:39.995Z,41.25
2022-07-26T09:34:10.517Z,42.34
2022-07-26T09:36:51.473Z,41.78
2022-07-26T09:39:22.746Z,42.03
2022-07-26T09:42:26.898Z,40.91
2022-07-26T09:44:55.590Z,42.32
2022-07-26T09:47:34.666Z,41.75
2022-07-26T09:50:12.694Z,41.32
2022-07-26T09:52:40.247Z,41.44
2022-07-26T09:55:09.762Z,41.34
2022-07-26T09:57:37.012Z,40.42
2022-07-26T10:00:07.843Z,41.19
2022-07-26T10:02:35.341Z,40.61
2022-07-26T10:05:02.287Z,40.17
2022-07-26T10:07:31.670Z,40.27
2022-07-26T10:10:07.480Z,40.98
2022-07-26T10:12:36.071Z,40.24
2022-07-26T10:15:04.117Z,39.83
2022-07-26T10:17:42.668Z,40.29
2022-07-26T10:20:26.806Z,40.24
2022-07-26T10:22:55.131Z,37.91
2022-07-26T10:25:48.294Z,37.92
2022-07-26T10:28:27.644Z,38.30
2022-07-26T10:31:30.027Z,37.57
2022-07-26T10:34:00.148Z,37.17
2022-07-26T10:36:34.561Z,37.02
2022-07-26T10:39:13.622Z,36.34
2022-07-26T10:41:45.263Z,35.62
2022-07-26T10:44:19.451Z,37.10
2022-07-26T10:46:59.728Z,36.50
2022-07-26T10:49:35.919Z,35.84
2022-07-26T10:52:14.632Z,35.04
2022-07-26T10:55:17.139Z,35.36
2022-07-26T10:57:47.393Z,36.07
2022-07-26T11:00:22.286Z,37.18
2022-07-26T11:02:56.402Z,37.26
2022-07-26T11:05:28.634Z,37.94
2022-07-26T11:08:00.686Z,38.41
2022-07-26T11:10:32.710Z,38.37
2022-07-26T11:13:09.750Z,37.72
2022-07-26T11:15:46.620Z,36.81
2022-07-26T11:18:24.549Z,34.60
2022-07-26T11:20:56.045Z,32.80
2022-07-26T11:23:33.702Z,31.87
2022-07-26T11:26:15.816Z,30.99
2022-07-26T11:28:57.149Z,31.35
2022-07-26T11:31:55.386Z,30.93
2022-07-26T11:34:24.672Z,30.68
2022-07-26T11:36:56.316Z,30.83
2022-07-26T11:39:27.810Z,30.96
2022-07-26T11:42:01.146Z,31.20
2022-07-26T11:44:29.175Z,29.69
2022-07-26T11:46:57.019Z,29.81
2022-07-26T11:49:59.989Z,29.87
2022-07-26T11:52:25.210Z,29.89
2022-07-26T11:54:53.918Z,30.11
2022-07-26T11:57:28.983Z,30.57
2022-07-26T11:59:56.410Z,30.39
2022-07-26T12:02:23.616Z,31.09
2022-07-26T12:05:18.155Z,32.38
2022-07-26T12:07:55.891Z,33.11
2022-07-26T12:10:24.307Z,32.15
2022-07-26T12:13:10.486Z,32.49
2022-07-26T12:15:48.500Z,31.86
2022-07-26T12:18:24.042Z,32.25
2022-07-26T12:21:05.570Z,32.96
2022-07-26T12:23:44.798Z,32.96
2022-07-26T12:26:26.528Z,34.45
2022-07-26T12:28:56.141Z,34.60
2022-07-26T12:31:25.599Z,34.93
2022-07-26T12:33:53.004Z,35.58
2022-07-26T12:36:27.439Z,36.24
2022-07-26T12:38:57.807Z,36.34
2022-07-26T12:41:32.940Z,37.35
2022-07-26T12:44:26.489Z,36.82
2022-07-26T12:46:53.958Z,37.02
2022-07-26T12:49:23.851Z,37.24
2022-07-26T12:51:51.137Z,37.42
2022-07-26T12:54:18.063Z,37.44
2022-07-26T12:56:46.388Z,36.87
2022-07-26T12:59:17.649Z,36.81
2022-07-26T13:01:46.768Z,36.24
2022-07-26T13:04:14.423Z,36.74
2022-07-26T13:06:42.644Z,35.74
2022-07-26T13:09:09.774Z,35.82
2022-07-26T13:11:42.707Z,35.43
2022-07-26T13:14:09.935Z,36.19
2022-07-26T13:16:38.447Z,36.46
2022-07-26T13:19:07.209Z,36.14
2022-07-26T13:21:34.137Z,37.42
2022-07-26T13:24:01.315Z,35.40
2022-07-26T13:26:28.309Z,35.27
2022-07-26T13:28:55.243Z,34.81
2022-07-26T13:31:22.130Z,35.39
2022-07-26T13:33:49.105Z,35.39
2022-07-26T13:36:17.871Z,35.76
2022-07-26T13:38:44.748Z,34.97
2022-07-26T13:41:13.712Z,35.24
2022-07-26T13:43:40.837Z,34.56
2022-07-26T13:46:07.997Z,35.51
2022-07-26T13:48:35.563Z,35.67
2022-07-26T13:51:02.799Z,34.79
2022-07-26T13:53:31.157Z,34.25
2022-07-26T13:55:57.980Z,34.52
2022-07-26T13:58:25.177Z,34.82
2022-07-26T14:00:52.253Z,35.50
2022-07-26T14:03:19.976Z,36.65
2022-07-26T14:05:47.056Z,36.83
2022-07-26T14:08:16.777Z,36.27
2022-07-26T14:10:45.601Z,35.74
2022-07-26T14:13:12.937Z,35.99
2022-07-26T14:15:40.161Z,36.04
2022-07-26T14:18:07.020Z,35.94
2022-07-26T14:20:34.151Z,36.10
2022-07-26T14:23:01.130Z,36.18
2022-07-26T14:25:28.379Z,35.43
2022-07-26T14:27:56.811Z,34.86
2022-07-26T14:30:23.890Z,34.50
2022-07-26T14:32:51.680Z,35.35
2022-07-26T14:35:18.591Z,36.38
2022-07-26T14:37:50.920Z,36.37
2022-07-26T14:40:18.058Z,36.69
2022-07-26T14:42:46.609Z,36.41
2022-07-26T14:45:15.458Z,35.93
2022-07-26T14:47:43.640Z,35.65
2022-07-26T14:50:13.715Z,36.60
2022-07-26T14:52:44.675Z,36.40
2022-07-26T14:55:13.098Z,35.79
2022-07-26T14:57:41.484Z,34.88
2022-07-26T15:00:13.143Z,35.02
2022-07-26T15:02:45.801Z,35.12
2022-07-26T15:05:14.391Z,35.40
2022-07-26T15:07:42.580Z,35.05
2022-07-26T15:10:13.882Z,34.50
2022-07-26T15:12:42.776Z,34.48
2022-07-26T15:15:13.915Z,34.75
2022-07-26T15:17:44.562Z,35.07
2022-07-26T15:20:11.804Z,34.48
2022-07-26T15:22:39.392Z,35.63
2022-07-26T15:25:07.933Z,36.36
2022-07-26T15:27:34.931Z,35.90
2022-07-26T15:30:05.298Z,35.03
2022-07-26T15:32:35.717Z,35.56
2022-07-26T15:35:05.649Z,35.35
2022-07-26T15:37:32.747Z,35.01
2022-07-26T15:40:01.167Z,35.24
2022-07-26T15:42:30.909Z,35.54
2022-07-26T15:44:58.404Z,35.91
2022-07-26T15:47:53.055Z,36.23
2022-07-26T15:50:16.660Z,36.66
2022-07-26T15:52:50.780Z,37.54
2022-07-26T15:55:19.108Z,37.16
2022-07-26T15:57:47.329Z,37.52
2022-07-26T16:00:16.133Z,36.62
2022-07-26T16:02:43.659Z,36.33
2022-07-26T16:05:12.992Z,37.53
2022-07-26T16:07:41.187Z,36.04
2022-07-26T16:10:10.689Z,36.66
2022-07-26T16:12:38.772Z,37.18
2022-07-26T16:15:11.126Z,37.15
2022-07-26T16:17:39.425Z,36.97
2022-07-26T16:20:08.092Z,36.23
2022-07-26T16:22:36.529Z,36.28
2022-07-26T16:25:04.256Z,37.16
2022-07-26T16:27:31.374Z,38.36
2022-07-26T16:29:58.255Z,38.59
2022-07-26T16:32:25.215Z,39.08
2022-07-26T16:34:52.250Z,39.02
2022-07-26T16:37:23.232Z,39.64
2022-07-26T16:39:54.332Z,38.44
2022-07-26T16:42:21.805Z,38.83
2022-07-26T16:44:48.971Z,38.95
2022-07-26T16:47:18.797Z,38.68
2022-07-26T16:49:46.528Z,38.48
2022-07-26T16:52:13.985Z,38.58
2022-07-26T16:54:41.096Z,38.12
2022-07-26T16:57:26.251Z,38.15
2022-07-26T16:59:54.266Z,39.77
2022-07-26T17:02:21.741Z,38.89
2022-07-26T17:04:48.857Z,38.56
2022-07-26T17:07:25.469Z,38.37
2022-07-26T17:09:53.962Z,38.29
2022-07-26T17:12:22.810Z,38.13
2022-07-26T17:14:50.610Z,38.49
2022-07-26T17:17:17.827Z,38.65
2022-07-26T17:19:48.028Z,38.17
2022-07-26T17:22:16.321Z,38.73
2022-07-26T17:24:43.641Z,38.50
2022-07-26T17:27:10.904Z,39.10
2022-07-26T17:29:39.307Z,38.86
2022-07-26T17:32:07.418Z,38.88
2022-07-26T17:34:35.900Z,39.19
2022-07-26T17:37:07.005Z,38.80
2022-07-26T17:39:51.838Z,39.82
2022-07-26T17:42:20.136Z,39.71
2022-07-26T17:44:48.862Z,39.50
2022-07-26T17:47:28.173Z,40.33
2022-07-26T17:50:26.300Z,39.73
2022-07-26T17:52:50.465Z,39.94
2022-07-26T17:55:19.361Z,42.39
2022-07-26T17:57:49.725Z,42.06
2022-07-26T18:00:22.719Z,41.24
2022-07-26T18:02:50.008Z,41.21
2022-07-26T18:05:19.933Z,41.77
2022-07-26T18:07:46.952Z,41.91
2022-07-26T18:10:15.223Z,41.76
2022-07-26T18:12:45.248Z,42.13
2022-07-26T18:15:14.914Z,41.77
2022-07-26T18:17:43.368Z,42.46
2022-07-26T18:20:11.760Z,42.92
2022-07-26T18:22:39.031Z,42.92
2022-07-26T18:25:07.491Z,43.01
2022-07-26T18:27:50.915Z,43.74
2022-07-26T18:30:17.997Z,43.67
2022-07-26T18:32:46.200Z,43.05
2022-07-26T18:35:13.503Z,43.15
2022-07-26T18:37:40.363Z,44.43
2022-07-26T18:40:08.973Z,43.91
2022-07-26T18:42:36.230Z,44.62
2022-07-26T18:45:03.569Z,44.10
2022-07-26T18:47:30.736Z,45.48
2022-07-26T18:49:59.130Z,44.91
2022-07-26T18:52:32.139Z,46.45
2022-07-26T18:55:01.973Z,46.67
2022-07-26T18:57:28.973Z,44.76
2022-07-26T18:59:55.851Z,45.26
2022-07-26T19:02:22.818Z,45.17
2022-07-26T19:04:49.984Z,47.49
2022-07-26T19:07:18.193Z,47.81
2022-07-26T19:09:45.307Z,46.19
2022-07-26T19:12:12.472Z,48.34
2022-07-26T19:14:39.687Z,48.62
2022-07-26T19:17:06.761Z,47.83
2022-07-26T19:19:33.766Z,48.53
2022-07-26T19:22:03.197Z,48.75
2022-07-26T19:24:42.887Z,48.56
2022-07-26T19:27:09.962Z,48.30
2022-07-26T19:29:37.422Z,49.18
2022-07-26T19:32:07.717Z,48.69
2022-07-26T19:34:35.458Z,49.30
2022-07-26T19:37:03.726Z,48.84
2022-07-26T19:39:31.639Z,50.10
2022-07-26T19:47:25.408Z,52.74
2022-07-26T19:49:53.247Z,54.04
2022-07-26T19:52:33.329Z,57.07
2022-07-26T19:55:01.880Z,57.92
2022-07-26T19:57:31.739Z,57.04
2022-07-26T19:59:58.927Z,57.39
2022-07-26T20:02:27.841Z,59.65
2022-07-26T20:04:55.279Z,61.64
2022-07-26T20:07:22.327Z,63.13
2022-07-26T20:10:02.130Z,64.10
2022-07-26T20:12:29.840Z,60.59
2022-07-26T20:14:56.779Z,58.65
2022-07-26T20:17:26.204Z,55.63
2022-07-26T20:19:54.801Z,55.23
2022-07-26T20:22:21.993Z,55.72
2022-07-26T20:24:48.972Z,56.71
2022-07-26T20:27:16.936Z,61.64
2022-07-26T20:29:43.996Z,63.12
2022-07-26T20:32:11.210Z,62.24
2022-07-26T20:34:38.647Z,62.01
2022-07-26T20:37:10.581Z,60.94
2022-07-26T20:39:39.113Z,60.78
2022-07-26T20:42:06.685Z,63.29
2022-07-26T20:44:36.446Z,64.20
2022-07-26T20:47:06.727Z,65.71
2022-07-26T20:49:33.680Z,65.77
2022-07-26T20:52:01.386Z,66.68
2022-07-26T20:54:29.702Z,68.22
2022-07-26T20:56:57.369Z,67.12
2022-07-26T20:59:24.410Z,67.53
2022-07-26T21:01:51.565Z,61.04
2022-07-26T21:04:18.906Z,67.26
2022-07-26T21:06:45.786Z,68.08
2022-07-26T21:09:14.112Z,68.17
2022-07-26T21:11:48.321Z,69.61
2022-07-26T21:14:19.016Z,71.88
2022-07-26T21:16:46.745Z,71.22
2022-07-26T21:19:14.237Z,69.05
2022-07-26T21:21:41.605Z,67.64
2022-07-26T21:24:09.164Z,69.54
2022-07-26T21:26:36.102Z,69.97
2022-07-26T21:29:05.172Z,71.13
2022-07-26T21:31:32.311Z,65.05
2022-07-26T21:33:59.377Z,62.08
2022-07-26T21:36:26.468Z,62.34
2022-07-26T21:38:53.313Z,63.50
2022-07-26T21:41:21.061Z,64.58
2022-07-26T21:43:48.048Z,67.06
2022-07-26T21:46:16.600Z,66.50
2022-07-26T21:48:46.811Z,67.33
2022-07-26T21:51:13.678Z,68.55
2022-07-26T21:53:40.960Z,69.04
2022-07-26T21:56:08.291Z,67.73
2022-07-26T21:58:36.911Z,68.33
2022-07-26T22:01:06.477Z,65.96
2022-07-26T22:03:37.015Z,63.19
2022-07-26T22:06:06.183Z,60.94
2022-07-26T22:08:33.923Z,61.47
2022-07-26T22:11:01.228Z,61.18
2022-07-26T22:13:28.154Z,61.25
2022-07-26T22:15:55.078Z,60.84
2022-07-26T22:18:22.207Z,60.16
2022-07-26T22:20:50.431Z,60.66
2022-07-26T22:23:19.513Z,60.41
2022-07-26T22:25:47.050Z,59.68
2022-07-26T22:28:18.326Z,59.93
2022-07-26T22:30:46.857Z,63.33
2022-07-26T22:33:14.262Z,65.35
2022-07-26T22:35:41.425Z,65.49
2022-07-26T22:38:11.499Z,68.25
2022-07-26T22:40:41.087Z,66.02
2022-07-26T22:43:09.901Z,66.79
2022-07-26T22:45:37.499Z,65.69
2022-07-26T22:48:06.083Z,65.59
2022-07-26T22:50:33.853Z,64.69
2022-07-26T22:53:01.425Z,63.09
2022-07-26T22:55:31.124Z,63.68
2022-07-26T22:57:58.144Z,63.70
2022-07-26T23:00:25.134Z,63.77
2022-07-26T23:02:52.301Z,61.70
2022-07-26T23:05:20.029Z,61.59
2022-07-26T23:07:48.553Z,60.25
2022-07-26T23:10:17.118Z,59.66
2022-07-26T23:12:45.422Z,60.40
2022-07-26T23:15:12.779Z,59.36
2022-07-26T23:17:40.371Z,59.88
2022-07-26T23:20:09.901Z,59.55
2022-07-26T23:22:37.364Z,59.42
2022-07-26T23:25:05.830Z,59.29
2022-07-26T23:27:32.720Z,59.64
2022-07-26T23:30:00.926Z,60.49
2022-07-26T23:32:27.764Z,60.91
2022-07-26T23:34:54.677Z,61.28
2022-07-26T23:37:21.507Z,60.74
2022-07-26T23:39:48.539Z,60.62
2022-07-26T23:42:15.467Z,61.23
2022-07-26T23:44:42.299Z,61.28
2022-07-26T23:47:10.585Z,61.14
2022-07-26T23:49:37.695Z,61.69
2022-07-26T23:52:05.319Z,62.99
2022-07-26T23:54:32.403Z,62.75
2022-07-26T23:56:59.903Z,62.49
2022-07-26T23:59:26.816Z,62.72
